createdAt,value
2019-02-14T00:00:38.609Z,991.44
2019-02-14T00:01:38.590Z,991.46
2019-02-14T00:02:38.574Z,991.46
2019-02-14T00:03:38.556Z,991.46
2019-02-14T00:04:38.539Z,991.43
2019-02-14T00:05:38.519Z,991.44
2019-02-14T00:06:38.503Z,991.43
2019-02-14T00:07:38.487Z,991.40
2019-02-14T00:08:38.471Z,991.43
2019-02-14T00:09:38.454Z,991.44
2019-02-14T00:10:38.435Z,991.42
2019-02-14T00:11:38.419Z,991.40
2019-02-14T00:12:38.402Z,991.40
2019-02-14T00:13:38.384Z,991.40
2019-02-14T00:14:38.369Z,991.41
2019-02-14T00:15:38.355Z,991.39
2019-02-14T00:16:38.339Z,991.39
2019-02-14T00:17:38.317Z,991.34
2019-02-14T00:18:38.300Z,991.38
2019-02-14T00:19:38.285Z,991.39
2019-02-14T00:20:38.267Z,991.38
2019-02-14T00:21:38.249Z,991.40
2019-02-14T00:22:38.231Z,991.33
2019-02-14T00:23:38.215Z,991.39
2019-02-14T00:24:38.200Z,991.36
2019-02-14T00:25:38.184Z,991.33
2019-02-14T00:26:38.167Z,991.34
2019-02-14T00:27:38.149Z,991.34
2019-02-14T00:28:38.132Z,991.32
2019-02-14T00:29:38.114Z,991.29
2019-02-14T00:30:38.096Z,991.33
2019-02-14T00:31:38.080Z,991.31
2019-02-14T00:32:38.073Z,991.27
2019-02-14T00:33:38.044Z,991.25
2019-02-14T00:34:38.028Z,991.25
2019-02-14T00:35:38.011Z,991.28
2019-02-14T00:36:37.996Z,991.23
2019-02-14T00:37:37.976Z,991.21
2019-02-14T00:38:37.963Z,991.21
2019-02-14T00:39:37.943Z,991.15
2019-02-14T00:40:37.927Z,991.19
2019-02-14T00:41:37.908Z,991.19
2019-02-14T00:42:37.893Z,991.18
2019-02-14T00:43:37.877Z,991.17
2019-02-14T00:44:37.858Z,991.19
2019-02-14T00:45:37.841Z,991.20
2019-02-14T00:46:37.822Z,991.20
2019-02-14T00:47:37.807Z,991.19
2019-02-14T00:48:37.790Z,991.19
2019-02-14T00:49:37.774Z,991.13
2019-02-14T00:50:37.756Z,991.15
2019-02-14T00:51:37.739Z,991.14
2019-02-14T00:52:37.776Z,991.15
2019-02-14T00:53:37.706Z,991.18
2019-02-14T00:54:37.689Z,991.22
2019-02-14T00:55:37.672Z,991.21
2019-02-14T00:56:37.656Z,991.24
2019-02-14T00:57:37.636Z,991.24
2019-02-14T00:58:37.620Z,991.24
2019-02-14T00:59:37.602Z,991.23
2019-02-14T01:00:37.588Z,991.18
2019-02-14T01:01:37.569Z,991.17
2019-02-14T01:02:37.551Z,991.22
2019-02-14T01:03:37.534Z,991.21
2019-02-14T01:04:37.517Z,991.19
2019-02-14T01:05:37.500Z,991.15
2019-02-14T01:06:37.486Z,991.20
2019-02-14T01:07:37.466Z,991.20
2019-02-14T01:08:37.450Z,991.24
2019-02-14T01:09:37.431Z,991.24
2019-02-14T01:10:37.413Z,991.27
2019-02-14T01:11:37.399Z,991.25
2019-02-14T01:12:37.378Z,991.25
2019-02-14T01:13:37.363Z,991.27
2019-02-14T01:14:37.346Z,991.30
2019-02-14T01:15:37.329Z,991.29
2019-02-14T01:16:37.312Z,991.29
2019-02-14T01:17:37.295Z,991.27
2019-02-14T01:18:37.277Z,991.26
2019-02-14T01:19:37.261Z,991.29
2019-02-14T01:20:37.244Z,991.32
2019-02-14T01:21:37.226Z,991.25
2019-02-14T01:22:37.206Z,991.25
2019-02-14T01:23:37.194Z,991.26
2019-02-14T01:24:37.177Z,991.24
2019-02-14T01:25:37.160Z,991.27
2019-02-14T01:26:37.138Z,991.27
2019-02-14T01:27:37.123Z,991.27
2019-02-14T01:28:37.109Z,991.24
2019-02-14T01:29:37.087Z,991.24
2019-02-14T01:30:37.073Z,991.21
2019-02-14T01:31:37.055Z,991.22
2019-02-14T01:32:37.037Z,991.19
2019-02-14T01:33:37.021Z,991.19
2019-02-14T01:34:37.003Z,991.20
2019-02-14T01:35:41.990Z,991.20
2019-02-14T01:36:36.968Z,991.19
2019-02-14T01:37:36.949Z,991.18
2019-02-14T01:38:36.933Z,991.20
2019-02-14T01:39:36.915Z,991.19
2019-02-14T01:40:36.899Z,991.17
2019-02-14T01:41:36.885Z,991.16
2019-02-14T01:42:36.865Z,991.16
2019-02-14T01:43:36.847Z,991.17
2019-02-14T01:44:36.829Z,991.15
2019-02-14T01:45:36.813Z,991.20
2019-02-14T01:46:36.794Z,991.14
2019-02-14T01:47:36.778Z,991.18
2019-02-14T01:48:36.764Z,991.22
2019-02-14T01:49:36.743Z,991.19
2019-02-14T01:50:36.726Z,991.16
2019-02-14T01:51:36.709Z,991.17
2019-02-14T01:52:36.695Z,991.19
2019-02-14T01:53:36.676Z,991.19
2019-02-14T01:54:36.658Z,991.20
2019-02-14T01:55:36.642Z,991.19
2019-02-14T01:56:36.623Z,991.20
2019-02-14T01:57:36.607Z,991.18
2019-02-14T01:58:36.590Z,991.22
2019-02-14T01:59:36.572Z,991.23
2019-02-14T02:00:36.555Z,991.21
2019-02-14T02:01:36.537Z,991.17
2019-02-14T02:02:36.523Z,991.16
2019-02-14T02:03:36.504Z,991.21
2019-02-14T02:04:36.484Z,991.21
2019-02-14T02:05:36.467Z,991.21
2019-02-14T02:06:36.451Z,991.18
2019-02-14T02:07:36.433Z,991.17
2019-02-14T02:08:36.417Z,991.18
2019-02-14T02:09:36.398Z,991.16
2019-02-14T02:10:36.382Z,991.12
2019-02-14T02:11:36.364Z,991.12
2019-02-14T02:12:36.346Z,991.13
2019-02-14T02:13:36.330Z,991.16
2019-02-14T02:14:36.313Z,991.15
2019-02-14T02:15:36.297Z,991.18
2019-02-14T02:16:36.280Z,991.23
2019-02-14T02:17:36.259Z,991.19
2019-02-14T02:18:36.242Z,991.20
2019-02-14T02:19:36.225Z,991.19
2019-02-14T02:20:36.206Z,991.20
2019-02-14T02:21:36.192Z,991.17
2019-02-14T02:22:36.174Z,991.17
2019-02-14T02:23:36.156Z,991.17
2019-02-14T02:24:36.140Z,991.14
2019-02-14T02:25:36.121Z,991.14
2019-02-14T02:26:36.102Z,991.14
2019-02-14T02:27:36.086Z,991.15
2019-02-14T02:28:36.069Z,991.12
2019-02-14T02:29:36.049Z,991.07
2019-02-14T02:30:36.038Z,991.07
2019-02-14T02:31:36.063Z,991.06
2019-02-14T02:32:35.999Z,991.06
2019-02-14T02:33:35.980Z,991.03
2019-02-14T02:34:35.966Z,991.07
2019-02-14T02:35:35.948Z,991.11
2019-02-14T02:36:35.930Z,991.08
2019-02-14T02:37:35.911Z,991.07
2019-02-14T02:38:35.900Z,991.09
2019-02-14T02:39:35.877Z,991.07
2019-02-14T02:40:35.861Z,991.06
2019-02-14T02:41:35.842Z,991.10
2019-02-14T02:42:35.826Z,991.11
2019-02-14T02:43:35.807Z,991.12
2019-02-14T02:44:35.789Z,991.12
2019-02-14T02:45:35.773Z,991.10
2019-02-14T02:46:35.755Z,991.11
2019-02-14T02:47:35.741Z,991.16
2019-02-14T02:48:35.721Z,991.15
2019-02-14T02:49:35.706Z,991.18
2019-02-14T02:50:35.687Z,991.17
2019-02-14T02:51:35.668Z,991.18
2019-02-14T02:52:35.651Z,991.16
2019-02-14T02:53:35.634Z,991.13
2019-02-14T02:54:35.615Z,991.14
2019-02-14T02:55:35.598Z,991.13
2019-02-14T02:56:35.584Z,991.17
2019-02-14T02:57:35.564Z,991.13
2019-02-14T02:58:35.544Z,991.19
2019-02-14T02:59:35.528Z,991.16
2019-02-14T03:00:35.511Z,991.19
2019-02-14T03:01:35.493Z,991.20
2019-02-14T03:02:35.485Z,991.20
2019-02-14T03:03:35.463Z,991.21
2019-02-14T03:04:35.441Z,991.19
2019-02-14T03:05:35.431Z,991.24
2019-02-14T03:06:35.414Z,991.25
2019-02-14T03:07:35.388Z,991.24
2019-02-14T03:08:35.371Z,991.25
2019-02-14T03:09:35.355Z,991.21
2019-02-14T03:10:35.336Z,991.24
2019-02-14T03:11:35.318Z,991.22
2019-02-14T03:12:35.302Z,991.21
2019-02-14T03:13:35.285Z,991.25
2019-02-14T03:14:35.265Z,991.19
2019-02-14T03:15:35.250Z,991.25
2019-02-14T03:16:35.231Z,991.21
2019-02-14T03:17:35.214Z,991.24
2019-02-14T03:18:35.197Z,991.22
2019-02-14T03:19:35.179Z,991.22
2019-02-14T03:20:35.163Z,991.19
2019-02-14T03:21:35.145Z,991.17
2019-02-14T03:22:35.127Z,991.21
2019-02-14T03:23:35.113Z,991.24
2019-02-14T03:24:35.093Z,991.23
2019-02-14T03:25:35.723Z,991.19
2019-02-14T03:26:35.058Z,991.16
2019-02-14T03:27:35.039Z,991.15
2019-02-14T03:28:35.023Z,991.19
2019-02-14T03:29:35.005Z,991.13
2019-02-14T03:30:34.989Z,991.13
2019-02-14T03:31:34.972Z,991.14
2019-02-14T03:32:35.247Z,991.15
2019-02-14T03:33:34.934Z,991.14
2019-02-14T03:34:34.917Z,991.14
2019-02-14T03:35:34.900Z,991.12
2019-02-14T03:36:34.883Z,991.16
2019-02-14T03:37:34.865Z,991.18
2019-02-14T03:38:34.847Z,991.20
2019-02-14T03:39:34.831Z,991.21
2019-02-14T03:40:34.812Z,991.26
2019-02-14T03:41:34.796Z,991.25
2019-02-14T03:42:34.776Z,991.26
2019-02-14T03:43:34.759Z,991.29
2019-02-14T03:44:34.742Z,991.33
2019-02-14T03:45:34.724Z,991.33
2019-02-14T03:46:34.708Z,991.33
2019-02-14T03:47:34.690Z,991.32
2019-02-14T03:48:34.674Z,991.28
2019-02-14T03:49:34.658Z,991.27
2019-02-14T03:50:34.637Z,991.24
2019-02-14T03:51:34.621Z,991.27
2019-02-14T03:52:34.604Z,991.24
2019-02-14T03:53:34.585Z,991.26
2019-02-14T03:54:34.568Z,991.26
2019-02-14T03:55:34.550Z,991.30
2019-02-14T03:56:34.533Z,991.30
2019-02-14T03:57:34.515Z,991.30
2019-02-14T03:58:34.499Z,991.27
2019-02-14T03:59:34.478Z,991.29
2019-02-14T04:00:34.461Z,991.24
2019-02-14T04:01:34.443Z,991.27
2019-02-14T04:02:34.425Z,991.25
2019-02-14T04:03:34.410Z,991.22
2019-02-14T04:04:34.395Z,991.25
2019-02-14T04:05:34.372Z,991.26
2019-02-14T04:06:34.359Z,991.28
2019-02-14T04:07:34.338Z,991.27
2019-02-14T04:08:34.323Z,991.26
2019-02-14T04:09:34.302Z,991.32
2019-02-14T04:10:34.287Z,991.34
2019-02-14T04:11:34.272Z,991.37
2019-02-14T04:12:34.252Z,991.41
2019-02-14T04:13:34.233Z,991.42
2019-02-14T04:14:34.218Z,991.42
2019-02-14T04:15:34.197Z,991.42
2019-02-14T04:16:34.183Z,991.39
2019-02-14T04:17:34.164Z,991.39
2019-02-14T04:18:34.211Z,991.43
2019-02-14T04:19:34.129Z,991.42
2019-02-14T04:20:34.111Z,991.33
2019-02-14T04:21:34.094Z,991.38
2019-02-14T04:22:34.075Z,991.39
2019-02-14T04:23:34.056Z,991.39
2019-02-14T04:24:34.041Z,991.40
2019-02-14T04:25:34.022Z,991.43
2019-02-14T04:26:34.005Z,991.39
2019-02-14T04:27:33.990Z,991.43
2019-02-14T04:28:33.970Z,991.40
2019-02-14T04:29:33.952Z,991.40
2019-02-14T04:30:33.935Z,991.43
2019-02-14T04:31:33.917Z,991.35
2019-02-14T04:32:33.900Z,991.42
2019-02-14T04:33:33.882Z,991.38
2019-02-14T04:34:33.864Z,991.40
2019-02-14T04:35:33.847Z,991.35
2019-02-14T04:36:36.119Z,991.41
2019-02-14T04:37:33.811Z,991.40
2019-02-14T04:38:33.796Z,991.37
2019-02-14T04:39:33.778Z,991.38
2019-02-14T04:40:33.964Z,991.36
2019-02-14T04:41:33.743Z,991.34
2019-02-14T04:42:33.725Z,991.37
2019-02-14T04:43:33.709Z,991.36
2019-02-14T04:44:33.688Z,991.39
2019-02-14T04:45:33.671Z,991.33
2019-02-14T04:46:33.652Z,991.35
2019-02-14T04:47:33.636Z,991.35
2019-02-14T04:48:33.620Z,991.35
2019-02-14T04:49:33.600Z,991.35
2019-02-14T04:50:33.584Z,991.32
2019-02-14T04:51:33.566Z,991.35
2019-02-14T04:52:33.557Z,991.35
2019-02-14T04:53:33.530Z,991.34
2019-02-14T04:54:33.513Z,991.36
2019-02-14T04:55:33.494Z,991.37
2019-02-14T04:56:33.478Z,991.38
2019-02-14T04:57:33.459Z,991.38
2019-02-14T04:58:33.441Z,991.35
2019-02-14T04:59:33.425Z,991.35
2019-02-14T05:00:33.406Z,991.37
2019-02-14T05:01:33.391Z,991.40
2019-02-14T05:02:33.371Z,991.37
2019-02-14T05:03:33.355Z,991.35
2019-02-14T05:04:33.338Z,991.37
2019-02-14T05:05:33.319Z,991.38
2019-02-14T05:06:33.300Z,991.33
2019-02-14T05:07:33.283Z,991.38
2019-02-14T05:08:33.266Z,991.38
2019-02-14T05:09:33.252Z,991.40
2019-02-14T05:10:33.231Z,991.37
2019-02-14T05:11:33.211Z,991.35
2019-02-14T05:12:33.197Z,991.32
2019-02-14T05:13:33.176Z,991.34
2019-02-14T05:14:33.163Z,991.35
2019-02-14T05:15:33.141Z,991.33
2019-02-14T05:16:33.125Z,991.33
2019-02-14T05:17:33.895Z,991.36
2019-02-14T05:18:33.088Z,991.35
2019-02-14T05:19:33.070Z,991.40
2019-02-14T05:20:33.056Z,991.41
2019-02-14T05:21:33.035Z,991.41
2019-02-14T05:22:33.017Z,991.43
2019-02-14T05:23:33.004Z,991.41
2019-02-14T05:24:32.982Z,991.42
2019-02-14T05:25:32.965Z,991.43
2019-02-14T05:26:32.947Z,991.42
2019-02-14T05:27:32.929Z,991.46
2019-02-14T05:28:32.911Z,991.39
2019-02-14T05:29:32.894Z,991.40
2019-02-14T05:30:32.876Z,991.37
2019-02-14T05:31:32.858Z,991.34
2019-02-14T05:32:32.840Z,991.30
2019-02-14T05:33:32.825Z,991.29
2019-02-14T05:34:32.808Z,991.27
2019-02-14T05:35:32.787Z,991.29
2019-02-14T05:36:32.770Z,991.29
2019-02-14T05:37:32.751Z,991.32
2019-02-14T05:38:32.734Z,991.32
2019-02-14T05:39:32.716Z,991.32
2019-02-14T05:40:32.699Z,991.31
2019-02-14T05:41:32.681Z,991.34
2019-02-14T05:42:32.662Z,991.35
2019-02-14T05:43:32.651Z,991.36
2019-02-14T05:44:32.630Z,991.32
2019-02-14T05:45:32.613Z,991.37
2019-02-14T05:46:32.593Z,991.34
2019-02-14T05:47:32.575Z,991.36
2019-02-14T05:48:32.557Z,991.33
2019-02-14T05:49:32.538Z,991.32
2019-02-14T05:50:32.519Z,991.34
2019-02-14T05:51:32.503Z,991.30
2019-02-14T05:52:32.486Z,991.31
2019-02-14T05:53:32.467Z,991.33
2019-02-14T05:54:32.450Z,991.36
2019-02-14T05:55:32.432Z,991.39
2019-02-14T05:56:32.415Z,991.38
2019-02-14T05:57:32.409Z,991.39
2019-02-14T05:58:32.379Z,991.38
2019-02-14T05:59:32.360Z,991.40
2019-02-14T06:00:32.344Z,991.39
2019-02-14T06:01:32.327Z,991.43
2019-02-14T06:02:32.323Z,991.41
2019-02-14T06:03:32.292Z,991.44
2019-02-14T06:04:32.272Z,991.46
2019-02-14T06:05:32.255Z,991.45
2019-02-14T06:06:32.237Z,991.41
2019-02-14T06:07:32.218Z,991.38
2019-02-14T06:08:33.230Z,991.39
2019-02-14T06:09:32.183Z,991.42
2019-02-14T06:10:32.166Z,991.40
2019-02-14T06:11:32.148Z,991.40
2019-02-14T06:12:32.128Z,991.45
2019-02-14T06:13:32.110Z,991.48
2019-02-14T06:14:32.093Z,991.42
2019-02-14T06:15:32.076Z,991.49
2019-02-14T06:16:32.058Z,991.53
2019-02-14T06:17:32.039Z,991.46
2019-02-14T06:18:32.023Z,991.49
2019-02-14T06:19:32.005Z,991.44
2019-02-14T06:20:31.987Z,991.51
2019-02-14T06:21:31.969Z,991.52
2019-02-14T06:22:31.949Z,991.56
2019-02-14T06:23:31.932Z,991.55
2019-02-14T06:24:31.916Z,991.56
2019-02-14T06:25:31.896Z,991.58
2019-02-14T06:26:31.879Z,991.59
2019-02-14T06:27:31.860Z,991.63
2019-02-14T06:28:31.845Z,991.61
2019-02-14T06:29:31.825Z,991.62
2019-02-14T06:30:31.807Z,991.62
2019-02-14T06:31:31.791Z,991.60
2019-02-14T06:32:31.773Z,991.60
2019-02-14T06:33:31.754Z,991.63
2019-02-14T06:34:31.737Z,991.58
2019-02-14T06:35:31.718Z,991.58
2019-02-14T06:36:31.702Z,991.60
2019-02-14T06:37:31.683Z,991.56
2019-02-14T06:38:31.664Z,991.59
2019-02-14T06:39:31.647Z,991.58
2019-02-14T06:40:31.632Z,991.63
2019-02-14T06:41:31.611Z,991.63
2019-02-14T06:42:31.594Z,991.64
2019-02-14T06:43:31.577Z,991.66
2019-02-14T06:44:31.557Z,991.65
2019-02-14T06:45:31.540Z,991.67
2019-02-14T06:46:31.550Z,991.67
2019-02-14T06:47:31.504Z,991.69
2019-02-14T06:48:31.489Z,991.71
2019-02-14T06:49:31.481Z,991.68
2019-02-14T06:50:34.775Z,991.67
2019-02-14T06:51:31.433Z,991.69
2019-02-14T06:52:31.415Z,991.69
2019-02-14T06:53:31.396Z,991.71
2019-02-14T06:54:31.379Z,991.70
2019-02-14T06:55:31.364Z,991.70
2019-02-14T06:56:31.343Z,991.68
2019-02-14T06:57:31.327Z,991.68
2019-02-14T06:58:31.310Z,991.70
2019-02-14T06:59:31.289Z,991.71
2019-02-14T07:00:31.272Z,991.73
2019-02-14T07:01:31.255Z,991.71
2019-02-14T07:02:31.241Z,991.70
2019-02-14T07:03:31.220Z,991.71
2019-02-14T07:04:31.201Z,991.73
2019-02-14T07:05:31.181Z,991.73
2019-02-14T07:06:31.165Z,991.75
2019-02-14T07:07:31.149Z,991.78
2019-02-14T07:08:31.131Z,991.80
2019-02-14T07:09:31.115Z,991.87
2019-02-14T07:10:31.094Z,991.86
2019-02-14T07:11:31.084Z,991.88
2019-02-14T07:12:31.060Z,991.88
2019-02-14T07:13:31.041Z,991.87
2019-02-14T07:14:31.023Z,991.86
2019-02-14T07:15:31.006Z,991.86
2019-02-14T07:16:30.991Z,991.86
2019-02-14T07:17:30.970Z,991.85
2019-02-14T07:18:30.951Z,991.85
2019-02-14T07:19:30.933Z,991.86
2019-02-14T07:20:30.919Z,991.82
2019-02-14T07:21:30.897Z,991.81
2019-02-14T07:22:30.880Z,991.89
2019-02-14T07:23:30.862Z,991.87
2019-02-14T07:24:30.844Z,991.86
2019-02-14T07:25:30.827Z,991.86
2019-02-14T07:26:30.808Z,991.82
2019-02-14T07:27:30.790Z,991.90
2019-02-14T07:28:30.774Z,991.83
2019-02-14T07:29:30.755Z,991.89
2019-02-14T07:30:30.745Z,991.87
2019-02-14T07:31:30.719Z,991.84
2019-02-14T07:32:30.705Z,991.84
2019-02-14T07:33:30.685Z,991.80
2019-02-14T07:34:30.671Z,991.80
2019-02-14T07:35:30.651Z,991.77
2019-02-14T07:36:30.631Z,991.79
2019-02-14T07:37:30.612Z,991.78
2019-02-14T07:38:30.596Z,991.75
2019-02-14T07:39:30.579Z,991.79
2019-02-14T07:40:30.560Z,991.80
2019-02-14T07:41:30.542Z,991.80
2019-02-14T07:42:30.524Z,991.82
2019-02-14T07:43:30.506Z,991.84
2019-02-14T07:44:30.491Z,991.82
2019-02-14T07:45:30.472Z,991.83
2019-02-14T07:46:30.459Z,991.80
2019-02-14T07:47:30.439Z,991.79
2019-02-14T07:48:30.421Z,991.78
2019-02-14T07:49:30.404Z,991.79
2019-02-14T07:50:30.425Z,991.80
2019-02-14T07:51:30.365Z,991.84
2019-02-14T07:52:30.349Z,991.82
2019-02-14T07:53:30.329Z,991.83
2019-02-14T07:54:30.316Z,991.86
2019-02-14T07:55:30.295Z,991.82
2019-02-14T07:56:30.277Z,991.83
2019-02-14T07:57:30.261Z,991.83
2019-02-14T07:58:30.245Z,991.83
2019-02-14T07:59:30.224Z,991.85
2019-02-14T08:00:30.212Z,991.83
2019-02-14T08:01:30.191Z,991.86
2019-02-14T08:02:30.173Z,991.86
2019-02-14T08:03:30.155Z,991.84
2019-02-14T08:04:30.140Z,991.85
2019-02-14T08:05:30.121Z,991.87
2019-02-14T08:06:30.103Z,991.84
2019-02-14T08:07:35.665Z,991.88
2019-02-14T08:08:30.067Z,991.87
2019-02-14T08:09:30.053Z,991.91
2019-02-14T08:10:30.032Z,991.88
2019-02-14T08:11:30.015Z,991.85
2019-02-14T08:12:30.000Z,991.85
2019-02-14T08:13:29.979Z,991.82
2019-02-14T08:14:29.961Z,991.81
2019-02-14T08:15:29.948Z,991.81
2019-02-14T08:16:29.927Z,991.84
2019-02-14T08:17:29.913Z,991.84
2019-02-14T08:18:29.893Z,991.84
2019-02-14T08:19:29.875Z,991.83
2019-02-14T08:20:29.859Z,991.83
2019-02-14T08:21:29.842Z,991.81
2019-02-14T08:22:29.826Z,991.85
2019-02-14T08:23:29.807Z,991.82
2019-02-14T08:24:29.793Z,991.83
2019-02-14T08:25:29.775Z,991.83
2019-02-14T08:26:29.755Z,991.87
2019-02-14T08:27:29.739Z,991.82
2019-02-14T08:28:29.723Z,991.81
2019-02-14T08:29:29.705Z,991.83
2019-02-14T08:30:29.688Z,991.81
2019-02-14T08:31:29.670Z,991.81
2019-02-14T08:32:29.655Z,991.80
2019-02-14T08:33:29.637Z,991.79
2019-02-14T08:34:29.621Z,991.79
2019-02-14T08:35:29.603Z,991.78
2019-02-14T08:36:29.589Z,991.80
2019-02-14T08:37:29.569Z,991.79
2019-02-14T08:38:29.554Z,991.77
2019-02-14T08:39:29.537Z,991.77
2019-02-14T08:40:29.521Z,991.77
2019-02-14T08:41:29.503Z,991.82
2019-02-14T08:42:29.486Z,991.84
2019-02-14T08:43:29.470Z,991.79
2019-02-14T08:44:29.453Z,991.85
2019-02-14T08:45:29.436Z,991.79
2019-02-14T08:46:29.421Z,991.81
2019-02-14T08:47:29.406Z,991.81
2019-02-14T08:48:29.389Z,991.82
2019-02-14T08:49:29.370Z,991.79
2019-02-14T08:50:29.357Z,991.80
2019-02-14T08:51:29.347Z,991.80
2019-02-14T08:52:29.322Z,991.82
2019-02-14T08:53:29.308Z,991.80
2019-02-14T08:54:29.290Z,991.78
2019-02-14T08:55:29.274Z,991.81
2019-02-14T08:56:29.258Z,991.83
2019-02-14T08:57:29.243Z,991.84
2019-02-14T08:58:29.227Z,991.80
2019-02-14T08:59:29.211Z,991.86
2019-02-14T09:00:29.195Z,991.86
2019-02-14T09:01:29.176Z,991.86
2019-02-14T09:02:29.162Z,991.90
2019-02-14T09:03:29.146Z,991.87
2019-02-14T09:04:29.138Z,991.83
2019-02-14T09:05:29.114Z,991.88
2019-02-14T09:06:29.099Z,991.85
2019-02-14T09:07:29.088Z,991.89
2019-02-14T09:08:29.069Z,991.85
2019-02-14T09:09:29.058Z,991.87
2019-02-14T09:10:29.037Z,991.84
2019-02-14T09:11:29.022Z,991.89
2019-02-14T09:12:29.006Z,991.87
2019-02-14T09:13:28.991Z,991.88
2019-02-14T09:14:28.975Z,991.88
2019-02-14T09:15:28.958Z,991.86
2019-02-14T09:16:28.942Z,991.93
2019-02-14T09:17:28.929Z,991.87
2019-02-14T09:18:28.914Z,991.88
2019-02-14T09:19:28.901Z,991.89
2019-02-14T09:20:28.883Z,991.89
2019-02-14T09:21:28.865Z,991.87
2019-02-14T09:22:28.849Z,991.90
2019-02-14T09:23:28.834Z,991.84
2019-02-14T09:24:28.819Z,991.81
2019-02-14T09:25:28.803Z,991.83
2019-02-14T09:26:28.787Z,991.84
2019-02-14T09:27:28.775Z,991.89
2019-02-14T09:28:28.759Z,991.91
2019-02-14T09:29:28.744Z,991.91
2019-02-14T09:30:28.726Z,991.92
2019-02-14T09:31:28.720Z,991.91
2019-02-14T09:32:28.699Z,991.92
2019-02-14T09:33:28.683Z,991.92
2019-02-14T09:34:28.668Z,991.94
2019-02-14T09:35:28.653Z,991.90
2019-02-14T09:36:28.639Z,991.91
2019-02-14T09:37:28.624Z,991.97
2019-02-14T09:38:28.607Z,991.89
2019-02-14T09:39:28.594Z,991.84
2019-02-14T09:40:28.582Z,991.86
2019-02-14T09:41:28.563Z,991.85
2019-02-14T09:42:29.285Z,991.87
2019-02-14T09:43:30.101Z,991.90
2019-02-14T09:44:28.520Z,991.88
2019-02-14T09:45:28.514Z,991.88
2019-02-14T09:46:28.500Z,991.86
2019-02-14T09:47:28.484Z,991.85
2019-02-14T09:48:28.471Z,991.88
2019-02-14T09:49:28.449Z,991.85
2019-02-14T09:50:28.436Z,991.91
2019-02-14T09:51:28.421Z,991.91
2019-02-14T09:52:28.405Z,991.92
2019-02-14T09:53:28.397Z,991.93
2019-02-14T09:54:28.381Z,991.96
2019-02-14T09:55:28.361Z,991.93
2019-02-14T09:56:28.369Z,991.97
2019-02-14T09:57:28.339Z,992.00
2019-02-14T09:58:28.322Z,991.96
2019-02-14T09:59:28.316Z,991.98
2019-02-14T10:00:28.297Z,991.97
2019-02-14T10:01:28.280Z,991.98
2019-02-14T10:02:28.265Z,991.96
2019-02-14T10:03:28.249Z,991.98
2019-02-14T10:04:28.267Z,991.95
2019-02-14T10:05:28.226Z,991.96
2019-02-14T10:06:36.411Z,991.94
2019-02-14T10:07:28.206Z,991.93
2019-02-14T10:08:28.185Z,991.94
2019-02-14T10:09:28.176Z,991.91
2019-02-14T10:10:28.166Z,991.90
2019-02-14T10:11:28.139Z,991.94
2019-02-14T10:12:28.125Z,991.91
2019-02-14T10:13:28.111Z,991.90
2019-02-14T10:14:28.099Z,991.92
2019-02-14T10:15:28.085Z,991.91
2019-02-14T10:16:28.071Z,991.92
2019-02-14T10:17:28.058Z,991.88
2019-02-14T10:18:28.045Z,991.90
2019-02-14T10:19:28.728Z,991.89
2019-02-14T10:20:28.019Z,991.88
2019-02-14T10:21:28.004Z,991.91
2019-02-14T10:22:27.988Z,991.87
2019-02-14T10:23:27.978Z,991.90
2019-02-14T10:24:27.966Z,991.90
2019-02-14T10:25:27.955Z,991.88
2019-02-14T10:26:27.937Z,991.86
2019-02-14T10:27:27.923Z,991.89
2019-02-14T10:28:27.910Z,991.89
2019-02-14T10:29:27.900Z,991.89
2019-02-14T10:30:27.884Z,991.87
2019-02-14T10:31:27.871Z,991.84
2019-02-14T10:32:27.858Z,991.87
2019-02-14T10:33:27.845Z,991.89
2019-02-14T10:34:27.831Z,991.90
2019-02-14T10:35:27.821Z,991.88
2019-02-14T10:36:27.807Z,991.92
2019-02-14T10:37:27.794Z,991.90
2019-02-14T10:38:27.786Z,991.87
2019-02-14T10:39:27.766Z,991.88
2019-02-14T10:40:27.758Z,991.87
2019-02-14T10:41:29.265Z,991.84
2019-02-14T10:42:27.727Z,991.87
2019-02-14T10:43:27.715Z,991.87
2019-02-14T10:44:27.705Z,991.85
2019-02-14T10:45:27.689Z,991.82
2019-02-14T10:46:27.678Z,991.89
2019-02-14T10:47:27.667Z,991.86
2019-02-14T10:48:27.652Z,991.91
2019-02-14T10:49:27.640Z,991.85
2019-02-14T10:50:27.626Z,991.90
2019-02-14T10:51:27.614Z,991.89
2019-02-14T10:52:27.601Z,991.87
2019-02-14T10:53:27.589Z,991.79
2019-02-14T10:54:27.576Z,991.82
2019-02-14T10:55:27.564Z,991.81
2019-02-14T10:56:27.553Z,991.78
2019-02-14T10:57:27.541Z,991.74
2019-02-14T10:58:27.527Z,991.73
2019-02-14T10:59:27.515Z,991.72
2019-02-14T11:00:27.507Z,991.72
2019-02-14T11:01:27.491Z,991.71
2019-02-14T11:02:27.478Z,991.70
2019-02-14T11:03:27.467Z,991.69
2019-02-14T11:04:27.456Z,991.69
2019-02-14T11:05:27.443Z,991.69
2019-02-14T11:06:27.432Z,991.68
2019-02-14T11:07:27.417Z,991.66
2019-02-14T11:08:31.598Z,991.70
2019-02-14T11:09:27.392Z,991.64
2019-02-14T11:10:27.380Z,991.68
2019-02-14T11:11:27.371Z,991.69
2019-02-14T11:12:27.357Z,991.66
2019-02-14T11:13:27.344Z,991.67
2019-02-14T11:14:29.142Z,991.67
2019-02-14T11:15:27.321Z,991.66
2019-02-14T11:16:27.310Z,991.72
2019-02-14T11:17:27.296Z,991.69
2019-02-14T11:18:27.283Z,991.70
2019-02-14T11:19:27.275Z,991.65
2019-02-14T11:20:27.261Z,991.65
2019-02-14T11:21:27.250Z,991.64
2019-02-14T11:22:27.236Z,991.66
2019-02-14T11:23:27.226Z,991.64
2019-02-14T11:24:27.214Z,991.66
2019-02-14T11:25:27.201Z,991.64
2019-02-14T11:26:27.198Z,991.60
2019-02-14T11:27:27.176Z,991.56
2019-02-14T11:28:27.166Z,991.57
2019-02-14T11:29:27.155Z,991.55
2019-02-14T11:30:27.142Z,991.53
2019-02-14T11:31:27.129Z,991.50
2019-02-14T11:32:27.116Z,991.41
2019-02-14T11:33:27.103Z,991.44
2019-02-14T11:34:27.094Z,991.42
2019-02-14T11:35:27.081Z,991.43
2019-02-14T11:36:27.068Z,991.41
2019-02-14T11:37:27.061Z,991.44
2019-02-14T11:38:27.046Z,991.39
2019-02-14T11:39:27.033Z,991.38
2019-02-14T11:40:27.023Z,991.40
2019-02-14T11:41:27.044Z,991.38
2019-02-14T11:42:26.998Z,991.36
2019-02-14T11:43:26.990Z,991.34
2019-02-14T11:44:26.977Z,991.33
2019-02-14T11:45:26.963Z,991.37
2019-02-14T11:46:26.951Z,991.34
2019-02-14T11:47:26.941Z,991.32
2019-02-14T11:48:26.930Z,991.34
2019-02-14T11:49:26.917Z,991.33
2019-02-14T11:50:26.907Z,991.37
2019-02-14T11:51:26.894Z,991.30
2019-02-14T11:52:26.883Z,991.30
2019-02-14T11:53:26.873Z,991.33
2019-02-14T11:54:26.859Z,991.25
2019-02-14T11:55:26.848Z,991.29
2019-02-14T11:56:26.839Z,991.31
2019-02-14T11:57:26.825Z,991.30
2019-02-14T11:58:26.815Z,991.28
2019-02-14T11:59:26.811Z,991.21
2019-02-14T12:00:26.793Z,991.19
2019-02-14T12:01:26.785Z,991.16
2019-02-14T12:02:26.770Z,991.13
2019-02-14T12:03:26.758Z,991.13
2019-02-14T12:04:26.748Z,991.10
2019-02-14T12:05:26.739Z,991.05
2019-02-14T12:06:26.727Z,991.09
2019-02-14T12:07:26.717Z,991.10
2019-02-14T12:08:26.704Z,991.03
2019-02-14T12:09:26.693Z,991.05
2019-02-14T12:10:26.686Z,991.06
2019-02-14T12:11:26.671Z,991.04
2019-02-14T12:12:27.968Z,991.03
2019-02-14T12:13:26.648Z,990.99
2019-02-14T12:14:26.637Z,990.99
2019-02-14T12:15:26.628Z,990.98
2019-02-14T12:16:26.617Z,990.98
2019-02-14T12:17:26.604Z,991.01
2019-02-14T12:18:26.594Z,990.98
2019-02-14T12:19:26.584Z,990.96
2019-02-14T12:20:26.572Z,990.92
2019-02-14T12:21:26.561Z,990.96
2019-02-14T12:22:26.551Z,990.90
2019-02-14T12:23:26.542Z,990.89
2019-02-14T12:24:26.529Z,990.89
2019-02-14T12:25:26.523Z,990.86
2019-02-14T12:26:26.507Z,990.85
2019-02-14T12:27:26.497Z,990.82
2019-02-14T12:28:26.485Z,990.81